Bass River, Massachusetts
Current Conditions -  °F | °C
As of 3:56 PM on Saturday 20 Dec 2014 (Local Time) from KHYA Reporting Station
Light Rain Light Rain  
Wind Chill: 32°   Ceiling: 1200
Heat Index: 37°   Visibility: 9mi
Dew Point: 35°   Wind: 6mph
Humidity: 93%   Direction: 300°WNW
Pressure: 30.21"   Gusts: NA
Location:  41.6739°N, 70.1961°W
Report Text: KHYA 202056Z 30005KT 9SM -RA BKN012 BKN018 OVC028 03/02 A3021 RMK AO2 RAB1957 SLP233 P0001 60001 T00280017 53004
Loading
Personal Weather Stations






























Interactive Weather Map New forecast layout! Learn more

10-Day Weather Forecast

Advertisements
Track Severe Weather on mobile